sensor_id;sensor_type;location;lat;lon;timestamp;pressure;altitude;pressure_sealevel;temperature;humidity
62791;BME280;48830;53.426;10.300;2022-12-18T00:00:41;102966.81;;;-7.04;92.90
62791;BME280;48830;53.426;10.300;2022-12-18T00:03:07;102965.72;;;-7.06;93.75
62791;BME280;48830;53.426;10.300;2022-12-18T00:05:32;102971.63;;;-7.06;93.78
62791;BME280;48830;53.426;10.300;2022-12-18T00:07:58;102972.16;;;-7.08;93.71
62791;BME280;48830;53.426;10.300;2022-12-18T00:10:23;102969.81;;;-7.14;94.09
62791;BME280;48830;53.426;10.300;2022-12-18T00:12:49;102973.72;;;-7.16;93.83
62791;BME280;48830;53.426;10.300;2022-12-18T00:15:15;102974.09;;;-7.06;94.98
62791;BME280;48830;53.426;10.300;2022-12-18T00:17:40;102975.78;;;-6.99;97.15
62791;BME280;48830;53.426;10.300;2022-12-18T00:20:06;102973.28;;;-6.99;97.38
62791;BME280;48830;53.426;10.300;2022-12-18T00:22:32;102971.84;;;-6.97;97.88
62791;BME280;48830;53.426;10.300;2022-12-18T00:24:57;102977.00;;;-7.03;97.66
62791;BME280;48830;53.426;10.300;2022-12-18T00:27:23;102982.31;;;-7.07;96.85
62791;BME280;48830;53.426;10.300;2022-12-18T00:29:48;102981.06;;;-7.10;96.16
62791;BME280;48830;53.426;10.300;2022-12-18T00:32:14;102983.53;;;-7.10;96.14
62791;BME280;48830;53.426;10.300;2022-12-18T00:34:41;102976.59;;;-7.13;96.31
62791;BME280;48830;53.426;10.300;2022-12-18T00:37:07;102983.19;;;-7.14;95.49
62791;BME280;48830;53.426;10.300;2022-12-18T00:39:33;102988.19;;;-7.14;95.54
62791;BME280;48830;53.426;10.300;2022-12-18T00:41:58;102988.19;;;-7.21;95.65
62791;BME280;48830;53.426;10.300;2022-12-18T00:44:42;103002.06;;;-7.23;95.60
62791;BME280;48830;53.426;10.300;2022-12-18T00:47:08;102993.34;;;-7.19;94.81
62791;BME280;48830;53.426;10.300;2022-12-18T00:49:33;102991.19;;;-7.23;94.57
62791;BME280;48830;53.426;10.300;2022-12-18T00:51:58;102988.84;;;-7.22;95.11
62791;BME280;48830;53.426;10.300;2022-12-18T00:54:24;103000.66;;;-7.21;94.31
62791;BME280;48830;53.426;10.300;2022-12-18T00:56:50;102995.66;;;-7.21;95.10
62791;BME280;48830;53.426;10.300;2022-12-18T00:59:17;102992.06;;;-7.23;94.42
62791;BME280;48830;53.426;10.300;2022-12-18T01:01:43;102996.31;;;-7.29;94.76
62791;BME280;48830;53.426;10.300;2022-12-18T01:04:08;102993.41;;;-7.39;94.45
62791;BME280;48830;53.426;10.300;2022-12-18T01:06:33;102992.00;;;-7.37;93.96
62791;BME280;48830;53.426;10.300;2022-12-18T01:08:59;102992.69;;;-7.38;94.30
62791;BME280;48830;53.426;10.300;2022-12-18T01:11:25;103005.56;;;-7.35;94.89
62791;BME280;48830;53.426;10.300;2022-12-18T01:13:52;103002.38;;;-7.34;94.80
62791;BME280;48830;53.426;10.300;2022-12-18T01:16:17;103004.38;;;-7.24;95.60
62791;BME280;48830;53.426;10.300;2022-12-18T01:18:43;103002.06;;;-7.23;97.22
62791;BME280;48830;53.426;10.300;2022-12-18T01:21:11;103004.56;;;-7.23;97.31
62791;BME280;48830;53.426;10.300;2022-12-18T01:23:37;103009.53;;;-7.30;96.56
62791;BME280;48830;53.426;10.300;2022-12-18T01:26:11;103013.41;;;-7.39;96.40
62791;BME280;48830;53.426;10.300;2022-12-18T01:28:37;103008.41;;;-7.39;94.76
62791;BME280;48830;53.426;10.300;2022-12-18T01:33:42;103014.41;;;-7.51;94.15
62791;BME280;48830;53.426;10.300;2022-12-18T01:36:14;103004.09;;;-7.47;94.29
62791;BME280;48830;53.426;10.300;2022-12-18T01:38:40;102986.25;;;-7.43;94.11
62791;BME280;48830;53.426;10.300;2022-12-18T01:41:06;102986.63;;;-7.40;94.77
62791;BME280;48830;53.426;10.300;2022-12-18T01:43:48;102985.56;;;-7.42;94.98
62791;BME280;48830;53.426;10.300;2022-12-18T01:46:17;102994.59;;;-7.50;95.97
62791;BME280;48830;53.426;10.300;2022-12-18T01:48:45;102989.44;;;-7.51;95.72
62791;BME280;48830;53.426;10.300;2022-12-18T01:51:12;102986.63;;;-7.40;95.73
62791;BME280;48830;53.426;10.300;2022-12-18T01:53:39;102997.00;;;-7.37;96.47
62791;BME280;48830;53.426;10.300;2022-12-18T01:56:06;102993.59;;;-7.37;96.92
62791;BME280;48830;53.426;10.300;2022-12-18T02:01:23;103000.16;;;-7.45;96.96
62791;BME280;48830;53.426;10.300;2022-12-18T02:03:49;103007.22;;;-7.55;95.25
62791;BME280;48830;53.426;10.300;2022-12-18T02:08:52;103018.97;;;-7.61;94.64
62791;BME280;48830;53.426;10.300;2022-12-18T02:14:58;103020.13;;;-7.72;93.93
62791;BME280;48830;53.426;10.300;2022-12-18T02:17:05;103025.28;;;-7.78;92.66
62791;BME280;48830;53.426;10.300;2022-12-18T02:27:49;103013.44;;;-7.86;92.01
62791;BME280;48830;53.426;10.300;2022-12-18T02:30:16;103021.25;;;-7.90;91.71
62791;BME280;48830;53.426;10.300;2022-12-18T02:32:47;103019.56;;;-7.97;91.07
62791;BME280;48830;53.426;10.300;2022-12-18T02:35:23;103022.06;;;-7.97;91.17
62791;BME280;48830;53.426;10.300;2022-12-18T02:37:53;103028.66;;;-7.97;90.49
62791;BME280;48830;53.426;10.300;2022-12-18T02:40:19;103028.47;;;-7.99;90.28
62791;BME280;48830;53.426;10.300;2022-12-18T02:42:47;103034.00;;;-8.01;90.33
62791;BME280;48830;53.426;10.300;2022-12-18T02:45:15;103036.81;;;-8.05;90.65
62791;BME280;48830;53.426;10.300;2022-12-18T02:47:43;103044.59;;;-8.09;91.12
62791;BME280;48830;53.426;10.300;2022-12-18T02:55:58;103045.00;;;-8.06;91.44
62791;BME280;48830;53.426;10.300;2022-12-18T02:58:34;103032.59;;;-7.99;92.71
62791;BME280;48830;53.426;10.300;2022-12-18T03:03:46;103022.50;;;-7.86;95.25
62791;BME280;48830;53.426;10.300;2022-12-18T03:06:35;103023.97;;;-7.81;96.16
62791;BME280;48830;53.426;10.300;2022-12-18T03:09:07;103028.47;;;-7.79;96.81
62791;BME280;48830;53.426;10.300;2022-12-18T03:11:37;103035.25;;;-7.78;97.31
62791;BME280;48830;53.426;10.300;2022-12-18T03:14:25;103035.25;;;-7.78;97.86
62791;BME280;48830;53.426;10.300;2022-12-18T03:16:57;103033.06;;;-7.82;98.28
62791;BME280;48830;53.426;10.300;2022-12-18T03:19:27;103025.78;;;-7.80;97.19
62791;BME280;48830;53.426;10.300;2022-12-18T03:22:00;103034.84;;;-7.81;97.66
62791;BME280;48830;53.426;10.300;2022-12-18T03:24:33;103030.25;;;-7.78;97.43
62791;BME280;48830;53.426;10.300;2022-12-18T03:27:01;103027.00;;;-7.84;97.29
62791;BME280;48830;53.426;10.300;2022-12-18T03:29:35;103026.44;;;-7.88;96.84
62791;BME280;48830;53.426;10.300;2022-12-18T03:32:07;103030.53;;;-7.89;96.96
62791;BME280;48830;53.426;10.300;2022-12-18T03:34:38;103043.84;;;-7.96;95.85
62791;BME280;48830;53.426;10.300;2022-12-18T03:37:07;103042.25;;;-7.95;96.36
62791;BME280;48830;53.426;10.300;2022-12-18T03:39:34;103056.69;;;-7.93;96.47
62791;BME280;48830;53.426;10.300;2022-12-18T03:42:26;103058.25;;;-8.00;95.44
62791;BME280;48830;53.426;10.300;2022-12-18T03:50:48;103047.50;;;-8.06;94.99
62791;BME280;48830;53.426;10.300;2022-12-18T03:53:29;103049.59;;;-8.09;94.19
62791;BME280;48830;53.426;10.300;2022-12-18T03:55:59;103049.59;;;-8.09;94.10
62791;BME280;48830;53.426;10.300;2022-12-18T03:58:32;103051.19;;;-8.10;94.32
62791;BME280;48830;53.426;10.300;2022-12-18T04:01:13;103049.59;;;-8.09;94.37
62791;BME280;48830;53.426;10.300;2022-12-18T04:03:42;103049.91;;;-8.13;94.29
62791;BME280;48830;53.426;10.300;2022-12-18T04:06:11;103045.94;;;-8.19;94.23
62791;BME280;48830;53.426;10.300;2022-12-18T04:08:39;103049.44;;;-8.24;94.38
62791;BME280;48830;53.426;10.300;2022-12-18T04:11:06;103040.28;;;-8.17;94.69
62791;BME280;48830;53.426;10.300;2022-12-18T04:13:35;103046.34;;;-8.15;94.09
62791;BME280;48830;53.426;10.300;2022-12-18T04:16:04;103051.16;;;-8.17;94.84
62791;BME280;48830;53.426;10.300;2022-12-18T04:18:31;103047.53;;;-8.19;94.17
62791;BME280;48830;53.426;10.300;2022-12-18T04:20:58;103045.63;;;-8.14;94.51
62791;BME280;48830;53.426;10.300;2022-12-18T04:23:24;103035.97;;;-8.19;94.87
62791;BME280;48830;53.426;10.300;2022-12-18T04:25:52;103042.06;;;-8.16;96.00
62791;BME280;48830;53.426;10.300;2022-12-18T04:28:29;103045.13;;;-8.12;96.15
62791;BME280;48830;53.426;10.300;2022-12-18T04:30:55;103041.41;;;-8.08;96.79
62791;BME280;48830;53.426;10.300;2022-12-18T04:33:21;103038.06;;;-8.02;97.38
62791;BME280;48830;53.426;10.300;2022-12-18T04:35:47;103034.56;;;-7.97;98.24
62791;BME280;48830;53.426;10.300;2022-12-18T04:38:12;103033.75;;;-7.90;99.06
62791;BME280;48830;53.426;10.300;2022-12-18T04:40:38;103048.72;;;-7.90;100.00
62791;BME280;48830;53.426;10.300;2022-12-18T04:43:10;103042.31;;;-7.88;99.76
62791;BME280;48830;53.426;10.300;2022-12-18T04:45:36;103037.31;;;-7.88;100.00
62791;BME280;48830;53.426;10.300;2022-12-18T04:48:02;103042.69;;;-7.85;99.54
62791;BME280;48830;53.426;10.300;2022-12-18T04:50:28;103044.97;;;-7.86;100.00
62791;BME280;48830;53.426;10.300;2022-12-18T04:52:55;103044.41;;;-7.91;99.98
62791;BME280;48830;53.426;10.300;2022-12-18T04:55:20;103043.47;;;-7.99;99.54
62791;BME280;48830;53.426;10.300;2022-12-18T04:57:54;103042.69;;;-8.05;98.78
62791;BME280;48830;53.426;10.300;2022-12-18T05:00:20;103045.00;;;-8.06;97.70
62791;BME280;48830;53.426;10.300;2022-12-18T05:02:46;103036.81;;;-8.05;97.91
62791;BME280;48830;53.426;10.300;2022-12-18T05:05:11;103037.84;;;-8.10;97.31
62791;BME280;48830;53.426;10.300;2022-12-18T05:07:37;103046.03;;;-8.11;96.84
62791;BME280;48830;53.426;10.300;2022-12-18T05:10:03;103048.66;;;-8.17;96.27
62791;BME280;48830;53.426;10.300;2022-12-18T05:12:32;103052.53;;;-8.19;95.62
62791;BME280;48830;53.426;10.300;2022-12-18T05:14:57;103063.34;;;-8.26;95.19
62791;BME280;48830;53.426;10.300;2022-12-18T05:17:23;103068.31;;;-8.26;94.25
62791;BME280;48830;53.426;10.300;2022-12-18T05:19:48;103063.75;;;-8.23;93.97
62791;BME280;48830;53.426;10.300;2022-12-18T05:22:14;103063.66;;;-8.30;94.13
62791;BME280;48830;53.426;10.300;2022-12-18T05:24:39;103068.25;;;-8.33;93.41
62791;BME280;48830;53.426;10.300;2022-12-18T05:27:05;103074.63;;;-8.35;93.41
62791;BME280;48830;53.426;10.300;2022-12-18T05:29:30;103076.00;;;-8.44;92.64
62791;BME280;48830;53.426;10.300;2022-12-18T05:31:56;103089.88;;;-8.46;92.66
62791;BME280;48830;53.426;10.300;2022-12-18T05:34:21;103087.69;;;-8.50;92.21
62791;BME280;48830;53.426;10.300;2022-12-18T05:36:46;103090.88;;;-8.51;92.00
62791;BME280;48830;53.426;10.300;2022-12-18T05:39:12;103093.28;;;-8.58;91.57
62791;BME280;48830;53.426;10.300;2022-12-18T05:41:37;103088.19;;;-8.53;91.84
62791;BME280;48830;53.426;10.300;2022-12-18T05:44:03;103088.00;;;-8.54;91.78
62791;BME280;48830;53.426;10.300;2022-12-18T05:46:28;103096.19;;;-8.55;91.98
62791;BME280;48830;53.426;10.300;2022-12-18T05:48:54;103101.66;;;-8.58;91.59
62791;BME280;48830;53.426;10.300;2022-12-18T05:51:21;103103.69;;;-8.55;92.13
62791;BME280;48830;53.426;10.300;2022-12-18T05:53:47;103098.47;;;-8.57;92.53
62791;BME280;48830;53.426;10.300;2022-12-18T05:56:18;103086.72;;;-8.58;92.83
62791;BME280;48830;53.426;10.300;2022-12-18T05:58:44;103089.19;;;-8.58;92.72
62791;BME280;48830;53.426;10.300;2022-12-18T06:01:19;103087.69;;;-8.50;93.63
62791;BME280;48830;53.426;10.300;2022-12-18T06:03:45;103092.66;;;-8.50;94.51
62791;BME280;48830;53.426;10.300;2022-12-18T06:06:19;103093.97;;;-8.47;94.55
62791;BME280;48830;53.426;10.300;2022-12-18T06:08:45;103087.69;;;-8.50;94.91
62791;BME280;48830;53.426;10.300;2022-12-18T06:11:11;103090.56;;;-8.47;95.76
62791;BME280;48830;53.426;10.300;2022-12-18T06:13:37;103085.78;;;-8.46;95.80
62791;BME280;48830;53.426;10.300;2022-12-18T06:16:04;103086.78;;;-8.51;96.05
62791;BME280;48830;53.426;10.300;2022-12-18T06:18:29;103098.84;;;-8.41;96.46
62791;BME280;48830;53.426;10.300;2022-12-18T06:20:56;103104.94;;;-8.39;96.65
62791;BME280;48830;53.426;10.300;2022-12-18T06:23:22;103106.13;;;-8.42;97.13
62791;BME280;48830;53.426;10.300;2022-12-18T06:25:47;103103.22;;;-8.46;96.95
62791;BME280;48830;53.426;10.300;2022-12-18T06:28:13;103105.25;;;-8.43;97.06
62791;BME280;48830;53.426;10.300;2022-12-18T06:30:38;103108.31;;;-8.38;96.97
62791;BME280;48830;53.426;10.300;2022-12-18T06:33:04;103113.31;;;-8.38;97.04
62791;BME280;48830;53.426;10.300;2022-12-18T06:35:29;103114.91;;;-8.39;97.32
62791;BME280;48830;53.426;10.300;2022-12-18T06:37:56;103118.53;;;-8.30;97.94
62791;BME280;48830;53.426;10.300;2022-12-18T06:40:22;103122.13;;;-8.28;98.81
62791;BME280;48830;53.426;10.300;2022-12-18T06:42:47;103117.50;;;-8.25;98.52
62791;BME280;48830;53.426;10.300;2022-12-18T06:45:13;103122.72;;;-8.23;98.64
62791;BME280;48830;53.426;10.300;2022-12-18T06:47:41;103130.88;;;-8.24;98.91
62791;BME280;48830;53.426;10.300;2022-12-18T06:50:06;103137.59;;;-8.30;98.51
62791;BME280;48830;53.426;10.300;2022-12-18T06:52:33;103139.47;;;-8.35;98.07
62791;BME280;48830;53.426;10.300;2022-12-18T06:54:59;103140.53;;;-8.40;96.97
62791;BME280;48830;53.426;10.300;2022-12-18T06:57:25;103146.50;;;-8.45;96.75
62791;BME280;48830;53.426;10.300;2022-12-18T06:59:50;103142.75;;;-8.49;95.79
62791;BME280;48830;53.426;10.300;2022-12-18T07:02:16;103146.25;;;-8.54;94.80
62791;BME280;48830;53.426;10.300;2022-12-18T07:04:41;103147.03;;;-8.48;95.37
62791;BME280;48830;53.426;10.300;2022-12-18T07:07:07;103152.03;;;-8.48;95.25
62791;BME280;48830;53.426;10.300;2022-12-18T07:09:32;103141.94;;;-8.42;95.82
62791;BME280;48830;53.426;10.300;2022-12-18T07:11:57;103147.53;;;-8.37;95.87
62791;BME280;48830;53.426;10.300;2022-12-18T07:14:23;103135.94;;;-8.37;95.77
62791;BME280;48830;53.426;10.300;2022-12-18T07:16:48;103125.38;;;-8.41;95.39
62791;BME280;48830;53.426;10.300;2022-12-18T07:19:14;103126.44;;;-8.39;95.97
62791;BME280;48830;53.426;10.300;2022-12-18T07:21:39;103134.63;;;-8.40;95.46
62791;BME280;48830;53.426;10.300;2022-12-18T07:24:05;103140.94;;;-8.37;95.67
62791;BME280;48830;53.426;10.300;2022-12-18T07:26:31;103148.72;;;-8.41;96.14
62791;BME280;48830;53.426;10.300;2022-12-18T07:28:56;103152.31;;;-8.39;96.48
62791;BME280;48830;53.426;10.300;2022-12-18T07:31:25;103157.69;;;-8.36;96.41
62791;BME280;48830;53.426;10.300;2022-12-18T07:33:51;103156.63;;;-8.31;96.27
62791;BME280;48830;53.426;10.300;2022-12-18T07:36:17;103158.06;;;-8.33;96.79
62791;BME280;48830;53.426;10.300;2022-12-18T07:38:46;103165.72;;;-8.31;97.45
62791;BME280;48830;53.426;10.300;2022-12-18T07:41:13;103154.22;;;-8.24;97.34
62791;BME280;48830;53.426;10.300;2022-12-18T07:43:40;103162.81;;;-8.22;97.68
62791;BME280;48830;53.426;10.300;2022-12-18T07:46:06;103164.19;;;-8.24;97.58
62791;BME280;48830;53.426;10.300;2022-12-18T07:48:32;103165.00;;;-8.17;97.67
62791;BME280;48830;53.426;10.300;2022-12-18T07:51:05;103165.78;;;-8.11;97.49
62791;BME280;48830;53.426;10.300;2022-12-18T07:53:32;103168.28;;;-8.11;97.47
62791;BME280;48830;53.426;10.300;2022-12-18T07:56:00;103170.38;;;-8.14;97.03
62791;BME280;48830;53.426;10.300;2022-12-18T07:58:25;103169.00;;;-8.12;96.99
62791;BME280;48830;53.426;10.300;2022-12-18T08:00:51;103173.88;;;-8.07;96.38
62791;BME280;48830;53.426;10.300;2022-12-18T08:03:18;103176.44;;;-8.00;96.89
62791;BME280;48830;53.426;10.300;2022-12-18T08:05:43;103174.53;;;-7.95;96.66
62791;BME280;48830;53.426;10.300;2022-12-18T08:08:09;103183.50;;;-7.90;96.56
62791;BME280;48830;53.426;10.300;2022-12-18T08:10:34;103180.66;;;-7.86;96.03
62791;BME280;48830;53.426;10.300;2022-12-18T08:13:00;103175.31;;;-7.89;96.06
62791;BME280;48830;53.426;10.300;2022-12-18T08:15:25;103171.47;;;-7.80;95.58
62791;BME280;48830;53.426;10.300;2022-12-18T08:17:51;103171.84;;;-7.77;96.29
62791;BME280;48830;53.426;10.300;2022-12-18T08:20:16;103169.03;;;-7.73;96.40
62791;BME280;48830;53.426;10.300;2022-12-18T08:22:43;103166.41;;;-7.67;95.24
62791;BME280;48830;53.426;10.300;2022-12-18T08:25:09;103151.63;;;-7.66;96.10
62791;BME280;48830;53.426;10.300;2022-12-18T08:27:35;103147.41;;;-7.59;96.04
62791;BME280;48830;53.426;10.300;2022-12-18T08:30:01;103145.59;;;-7.60;96.27
62791;BME280;48830;53.426;10.300;2022-12-18T08:32:28;103152.13;;;-7.48;95.69
62791;BME280;48830;53.426;10.300;2022-12-18T08:34:53;103150.06;;;-7.38;96.14
62791;BME280;48830;53.426;10.300;2022-12-18T08:37:19;103154.00;;;-7.40;96.02
62791;BME280;48830;53.426;10.300;2022-12-18T08:39:44;103149.44;;;-7.30;95.64
62791;BME280;48830;53.426;10.300;2022-12-18T08:42:10;103142.31;;;-7.27;95.12
62791;BME280;48830;53.426;10.300;2022-12-18T08:44:54;103134.31;;;-7.24;95.74
62791;BME280;48830;53.426;10.300;2022-12-18T08:47:19;103148.28;;;-7.19;95.55
62791;BME280;48830;53.426;10.300;2022-12-18T08:49:45;103139.03;;;-7.13;95.53
62791;BME280;48830;53.426;10.300;2022-12-18T08:52:10;103146.22;;;-7.09;95.47
62791;BME280;48830;53.426;10.300;2022-12-18T08:54:42;103149.28;;;-7.04;96.24
62791;BME280;48830;53.426;10.300;2022-12-18T08:57:07;103155.91;;;-6.98;95.38
62791;BME280;48830;53.426;10.300;2022-12-18T08:59:32;103156.66;;;-6.92;95.28
62791;BME280;48830;53.426;10.300;2022-12-18T09:01:58;103153.69;;;-6.82;96.38
62791;BME280;48830;53.426;10.300;2022-12-18T09:04:23;103149.94;;;-6.78;95.40
62791;BME280;48830;53.426;10.300;2022-12-18T09:06:49;103153.56;;;-6.76;94.96
62791;BME280;48830;53.426;10.300;2022-12-18T09:09:14;103158.59;;;-6.69;95.16
62791;BME280;48830;53.426;10.300;2022-12-18T09:11:40;103160.75;;;-6.65;94.83
62791;BME280;48830;53.426;10.300;2022-12-18T09:14:05;103155.22;;;-6.63;95.77
62791;BME280;48830;53.426;10.300;2022-12-18T09:16:31;103150.63;;;-6.52;95.72
62791;BME280;48830;53.426;10.300;2022-12-18T09:18:58;103144.53;;;-6.54;94.81
62791;BME280;48830;53.426;10.300;2022-12-18T09:21:32;103147.25;;;-6.46;95.65
62791;BME280;48830;53.426;10.300;2022-12-18T09:23:59;103148.84;;;-6.46;95.57
62791;BME280;48830;53.426;10.300;2022-12-18T09:26:25;103148.94;;;-6.32;94.60
62791;BME280;48830;53.426;10.300;2022-12-18T09:28:51;103154.84;;;-6.24;95.33
62791;BME280;48830;53.426;10.300;2022-12-18T09:31:18;103148.28;;;-6.17;94.67
62791;BME280;48830;53.426;10.300;2022-12-18T09:33:44;103153.09;;;-6.11;94.81
62791;BME280;48830;53.426;10.300;2022-12-18T09:36:12;103159.38;;;-6.07;94.33
62791;BME280;48830;53.426;10.300;2022-12-18T09:38:38;103148.66;;;-5.99;94.81
62791;BME280;48830;53.426;10.300;2022-12-18T09:46:57;103148.69;;;-5.78;93.65
62791;BME280;48830;53.426;10.300;2022-12-18T09:49:29;103151.38;;;-5.55;93.15
62791;BME280;48830;53.426;10.300;2022-12-18T09:52:04;103150.16;;;-5.37;91.59
62791;BME280;48830;53.426;10.300;2022-12-18T09:54:35;103156.16;;;-4.78;92.94
62791;BME280;48830;53.426;10.300;2022-12-18T09:57:03;103157.31;;;-4.53;91.76
62791;BME280;48830;53.426;10.300;2022-12-18T09:59:37;103158.56;;;-4.05;89.38
62791;BME280;48830;53.426;10.300;2022-12-18T10:02:20;103154.88;;;-3.93;87.37
62791;BME280;48830;53.426;10.300;2022-12-18T10:05:10;103154.22;;;-3.46;85.53
62791;BME280;48830;53.426;10.300;2022-12-18T10:13:21;103152.41;;;-2.85;81.44
62791;BME280;48830;53.426;10.300;2022-12-18T10:16:06;103147.53;;;-3.00;79.84
62791;BME280;48830;53.426;10.300;2022-12-18T10:18:55;103147.63;;;-2.59;78.91
62791;BME280;48830;53.426;10.300;2022-12-18T10:21:32;103154.69;;;-1.92;77.35
62791;BME280;48830;53.426;10.300;2022-12-18T10:26:41;103152.63;;;-2.12;76.55
62791;BME280;48830;53.426;10.300;2022-12-18T10:29:14;103156.38;;;-1.51;76.30
62791;BME280;48830;53.426;10.300;2022-12-18T10:31:40;103152.78;;;1.45;69.53
62791;BME280;48830;53.426;10.300;2022-12-18T10:34:10;103148.19;;;2.26;63.15
62791;BME280;48830;53.426;10.300;2022-12-18T10:36:36;103161.38;;;2.72;59.37
62791;BME280;48830;53.426;10.300;2022-12-18T10:39:18;103163.59;;;1.71;61.99
62791;BME280;48830;53.426;10.300;2022-12-18T10:41:43;103173.16;;;0.72;64.46
62791;BME280;48830;53.426;10.300;2022-12-18T10:46:40;103162.25;;;0.37;67.55
62791;BME280;48830;53.426;10.300;2022-12-18T10:49:27;103169.47;;;0.07;67.51
62791;BME280;48830;53.426;10.300;2022-12-18T10:52:24;103166.03;;;-0.11;69.87
62791;BME280;48830;53.426;10.300;2022-12-18T10:54:53;103159.97;;;-0.05;69.76
62791;BME280;48830;53.426;10.300;2022-12-18T10:57:40;103158.63;;;0.61;68.17
62791;BME280;48830;53.426;10.300;2022-12-18T11:00:26;103150.81;;;1.04;65.89
62791;BME280;48830;53.426;10.300;2022-12-18T11:02:53;103151.03;;;0.89;64.85
62791;BME280;48830;53.426;10.300;2022-12-18T11:05:37;103149.22;;;1.43;65.40
62791;BME280;48830;53.426;10.300;2022-12-18T11:08:02;103130.88;;;3.63;59.40
62791;BME280;48830;53.426;10.300;2022-12-18T11:10:32;103132.84;;;4.74;55.97
62791;BME280;48830;53.426;10.300;2022-12-18T11:15:40;103139.84;;;4.88;54.61
62791;BME280;48830;53.426;10.300;2022-12-18T11:18:26;103151.53;;;5.53;53.22
62791;BME280;48830;53.426;10.300;2022-12-18T11:20:55;103147.59;;;5.12;53.52
62791;BME280;48830;53.426;10.300;2022-12-18T11:23:23;103137.69;;;5.85;53.02
62791;BME280;48830;53.426;10.300;2022-12-18T11:25:57;103134.78;;;5.34;53.19
62791;BME280;48830;53.426;10.300;2022-12-18T11:29:27;103140.66;;;4.99;52.69
62791;BME280;48830;53.426;10.300;2022-12-18T11:31:32;103137.00;;;3.98;54.53
62791;BME280;48830;53.426;10.300;2022-12-18T11:34:10;103128.63;;;3.46;57.44
62791;BME280;48830;53.426;10.300;2022-12-18T11:36:45;103121.97;;;3.68;57.86
62791;BME280;48830;53.426;10.300;2022-12-18T11:39:20;103114.56;;;3.09;60.04
62791;BME280;48830;53.426;10.300;2022-12-18T11:41:54;103113.56;;;2.37;61.90
62791;BME280;48830;53.426;10.300;2022-12-18T11:44:46;103103.66;;;2.01;63.14
62791;BME280;48830;53.426;10.300;2022-12-18T11:47:42;103113.53;;;1.50;65.40
62791;BME280;48830;53.426;10.300;2022-12-18T11:50:46;103109.34;;;1.31;66.26
62791;BME280;48830;53.426;10.300;2022-12-18T11:53:13;103103.41;;;1.31;65.63
62791;BME280;48830;53.426;10.300;2022-12-18T12:06:26;103096.72;;;5.25;54.04
62791;BME280;48830;53.426;10.300;2022-12-18T12:15:02;103074.34;;;3.88;57.67
62791;BME280;48830;53.426;10.300;2022-12-18T12:21:02;103074.44;;;1.86;62.99
62791;BME280;48830;53.426;10.300;2022-12-18T12:26:06;103053.41;;;1.20;64.94
62791;BME280;48830;53.426;10.300;2022-12-18T12:34:10;103052.03;;;-0.14;69.77
62791;BME280;48830;53.426;10.300;2022-12-18T12:39:15;103046.00;;;0.11;70.20
62791;BME280;48830;53.426;10.300;2022-12-18T12:41:44;103040.44;;;-0.21;71.26
62791;BME280;48830;53.426;10.300;2022-12-18T12:44:39;103030.28;;;-0.12;72.44
62791;BME280;48830;53.426;10.300;2022-12-18T12:47:17;103013.22;;;-0.15;72.47
62791;BME280;48830;53.426;10.300;2022-12-18T12:49:46;103021.06;;;-0.03;72.59
62791;BME280;48830;53.426;10.300;2022-12-18T12:52:32;103006.28;;;-0.43;72.63
62791;BME280;48830;53.426;10.300;2022-12-18T12:55:02;103017.69;;;0.15;72.16
62791;BME280;48830;53.426;10.300;2022-12-18T12:57:47;103010.28;;;0.17;70.89
62791;BME280;48830;53.426;10.300;2022-12-18T13:00:18;103000.75;;;0.14;71.67
62791;BME280;48830;53.426;10.300;2022-12-18T13:05:54;102972.22;;;-0.21;73.34
62791;BME280;48830;53.426;10.300;2022-12-18T13:08:25;102974.44;;;-0.33;73.56
62791;BME280;48830;53.426;10.300;2022-12-18T13:10:52;102978.63;;;-0.33;74.28
62791;BME280;48830;53.426;10.300;2022-12-18T13:13:54;102975.84;;;-0.45;74.62
62791;BME280;48830;53.426;10.300;2022-12-18T13:16:24;102971.84;;;-0.43;74.57
62791;BME280;48830;53.426;10.300;2022-12-18T13:18:52;102980.72;;;-0.38;74.86
62791;BME280;48830;53.426;10.300;2022-12-18T13:21:30;102978.81;;;-0.49;73.85
62791;BME280;48830;53.426;10.300;2022-12-18T13:23:56;102978.03;;;-0.31;73.79
62791;BME280;48830;53.426;10.300;2022-12-18T13:26:38;102992.94;;;-0.42;73.67
62791;BME280;48830;53.426;10.300;2022-12-18T13:29:04;102983.84;;;-0.49;74.29
62791;BME280;48830;53.426;10.300;2022-12-18T13:36:40;102997.41;;;-0.92;75.97
62791;BME280;48830;53.426;10.300;2022-12-18T13:41:45;102995.59;;;-1.36;77.84
62791;BME280;48830;53.426;10.300;2022-12-18T13:44:13;102985.09;;;-1.32;78.15
62791;BME280;48830;53.426;10.300;2022-12-18T13:46:49;102985.66;;;-1.35;78.69
62791;BME280;48830;53.426;10.300;2022-12-18T13:51:59;102963.84;;;-1.43;79.40
62791;BME280;48830;53.426;10.300;2022-12-18T13:56:53;102978.53;;;-1.56;80.46
62791;BME280;48830;53.426;10.300;2022-12-18T13:59:23;102976.88;;;-1.64;80.46
62791;BME280;48830;53.426;10.300;2022-12-18T14:01:53;102982.91;;;-1.79;81.00
62791;BME280;48830;53.426;10.300;2022-12-18T14:06:50;103001.09;;;-1.91;81.53
62791;BME280;48830;53.426;10.300;2022-12-18T14:09:21;102995.03;;;-1.93;81.52
62791;BME280;48830;53.426;10.300;2022-12-18T14:11:50;102991.88;;;-1.99;82.19
62791;BME280;48830;53.426;10.300;2022-12-18T14:14:17;102984.88;;;-2.01;82.23
62791;BME280;48830;53.426;10.300;2022-12-18T14:16:43;102983.41;;;-1.99;82.49
62791;BME280;48830;53.426;10.300;2022-12-18T14:19:16;102982.78;;;-2.14;82.81
62791;BME280;48830;53.426;10.300;2022-12-18T14:21:47;102993.41;;;-2.17;83.25
62791;BME280;48830;53.426;10.300;2022-12-18T14:24:18;102991.16;;;-2.22;83.38
62791;BME280;48830;53.426;10.300;2022-12-18T14:26:44;102982.66;;;-2.31;83.89
62791;BME280;48830;53.426;10.300;2022-12-18T14:29:25;102977.88;;;-2.37;84.10
62791;BME280;48830;53.426;10.300;2022-12-18T14:34:33;102969.22;;;-2.48;84.29
62791;BME280;48830;53.426;10.300;2022-12-18T14:36:58;102969.75;;;-2.59;84.65